createdAt,value
2023-03-26T00:01:25.230Z,7.23
2023-03-26T00:03:58.284Z,7.24
2023-03-26T00:06:30.420Z,7.25
2023-03-26T00:08:58.985Z,7.27
2023-03-26T00:11:27.860Z,7.29
2023-03-26T00:13:58.654Z,7.32
2023-03-26T00:16:30.008Z,7.35
2023-03-26T00:18:57.957Z,7.38
2023-03-26T00:21:28.148Z,7.40
2023-03-26T00:23:58.699Z,7.41
2023-03-26T00:26:31.417Z,7.43
2023-03-26T00:29:00.327Z,7.44
2023-03-26T00:31:27.781Z,7.46
2023-03-26T00:33:55.942Z,7.47
2023-03-26T00:36:28.152Z,7.49
2023-03-26T00:38:55.773Z,7.49
2023-03-26T00:41:26.179Z,7.51
2023-03-26T00:43:59.304Z,7.52
2023-03-26T00:46:28.582Z,7.53
2023-03-26T00:48:58.880Z,7.52
2023-03-26T00:51:27.146Z,7.51
2023-03-26T00:53:54.258Z,7.50
2023-03-26T00:56:21.053Z,7.50
2023-03-26T00:58:50.372Z,7.50
2023-03-26T01:01:21.864Z,7.50
2023-03-26T01:04:15.356Z,7.52
2023-03-26T01:06:42.345Z,7.52
2023-03-26T01:09:16.926Z,7.53
2023-03-26T01:11:44.829Z,7.52
2023-03-26T01:14:19.233Z,7.53
2023-03-26T01:16:52.304Z,7.51
2023-03-26T01:19:45.998Z,7.51
2023-03-26T01:22:22.540Z,7.50
2023-03-26T01:24:59.002Z,7.49
2023-03-26T01:27:36.211Z,7.49
2023-03-26T01:30:11.376Z,7.48
2023-03-26T01:32:59.507Z,7.47
2023-03-26T01:35:35.436Z,7.48
2023-03-26T01:38:23.378Z,7.48
2023-03-26T01:41:07.964Z,7.48
2023-03-26T01:43:51.694Z,7.49
2023-03-26T01:46:21.590Z,7.50
2023-03-26T01:48:49.281Z,7.51
2023-03-26T01:51:30.554Z,7.52
2023-03-26T01:53:58.657Z,7.51
2023-03-26T01:56:53.292Z,7.48
2023-03-26T01:59:49.085Z,7.43
2023-03-26T02:02:37.365Z,7.39
2023-03-26T02:05:10.916Z,7.36
2023-03-26T02:07:45.011Z,7.33
2023-03-26T02:10:23.404Z,7.30
2023-03-26T02:12:50.923Z,7.26
2023-03-26T02:15:17.707Z,7.22
2023-03-26T02:17:44.475Z,7.18
2023-03-26T02:20:14.475Z,7.14
2023-03-26T02:22:46.270Z,7.09
2023-03-26T02:25:18.182Z,7.03
2023-03-26T02:27:46.402Z,6.98
2023-03-26T02:30:19.919Z,6.92
2023-03-26T02:32:47.042Z,6.89
2023-03-26T02:35:14.031Z,6.87
2023-03-26T02:37:42.299Z,6.84
2023-03-26T02:40:11.900Z,6.81
2023-03-26T02:42:39.123Z,6.78
2023-03-26T02:45:06.918Z,6.75
2023-03-26T02:47:33.989Z,6.71
2023-03-26T02:50:01.765Z,6.69
2023-03-26T02:52:28.530Z,6.67
2023-03-26T02:54:55.639Z,6.64
2023-03-26T02:57:24.110Z,6.63
2023-03-26T02:59:52.993Z,6.61
2023-03-26T03:02:22.914Z,6.61
2023-03-26T03:04:49.517Z,6.60
2023-03-26T03:07:16.317Z,6.59
2023-03-26T03:09:43.113Z,6.59
2023-03-26T03:12:09.787Z,6.59
2023-03-26T03:14:37.935Z,6.59
2023-03-26T03:17:04.779Z,6.60
2023-03-26T03:19:31.631Z,6.60
2023-03-26T03:21:58.322Z,6.61
2023-03-26T03:24:27.147Z,6.61
2023-03-26T03:26:56.948Z,6.61
2023-03-26T03:29:24.016Z,6.62
2023-03-26T03:31:51.061Z,6.62
2023-03-26T03:34:17.943Z,6.62
2023-03-26T03:36:48.834Z,6.62
2023-03-26T03:39:15.947Z,6.63
2023-03-26T03:41:42.680Z,6.63
2023-03-26T03:44:09.527Z,6.64
2023-03-26T03:46:36.234Z,6.65
2023-03-26T03:49:03.545Z,6.66
2023-03-26T03:51:30.763Z,6.67
2023-03-26T03:53:57.645Z,6.69
2023-03-26T03:56:26.212Z,6.70
2023-03-26T03:58:53.345Z,6.71
2023-03-26T04:01:22.960Z,6.73
2023-03-26T04:03:50.245Z,6.74
2023-03-26T04:06:19.382Z,6.76
2023-03-26T04:08:46.640Z,6.76
2023-03-26T04:11:14.517Z,6.78
2023-03-26T04:13:41.338Z,6.79
2023-03-26T04:16:08.737Z,6.80
2023-03-26T04:18:37.548Z,6.82
2023-03-26T04:21:05.651Z,6.84
2023-03-26T04:23:32.439Z,6.85
2023-03-26T04:26:04.363Z,6.86
2023-03-26T04:28:43.279Z,6.88
2023-03-26T04:31:17.471Z,6.88
2023-03-26T04:33:47.409Z,6.90
2023-03-26T04:36:16.100Z,6.91
2023-03-26T04:38:52.118Z,6.91
2023-03-26T04:41:22.475Z,6.92
2023-03-26T04:43:50.887Z,6.94
2023-03-26T04:46:23.987Z,6.94
2023-03-26T04:48:55.039Z,6.95
2023-03-26T04:51:25.834Z,6.95
2023-03-26T04:53:57.863Z,6.96
2023-03-26T04:56:30.799Z,6.96
2023-03-26T04:59:00.835Z,6.98
2023-03-26T05:01:31.285Z,6.99
2023-03-26T05:04:01.544Z,7.01
2023-03-26T05:06:30.557Z,7.05
2023-03-26T05:08:57.648Z,7.09
2023-03-26T05:11:24.425Z,7.11
2023-03-26T05:13:51.202Z,7.12
2023-03-26T05:16:18.054Z,7.13
2023-03-26T05:18:44.799Z,7.15
2023-03-26T05:21:12.021Z,7.16
2023-03-26T05:23:38.976Z,7.16
2023-03-26T05:26:07.658Z,7.18
2023-03-26T05:28:34.896Z,7.20
2023-03-26T05:31:01.758Z,7.24
2023-03-26T05:33:29.026Z,7.29
2023-03-26T05:36:08.043Z,7.35
2023-03-26T05:38:35.815Z,7.39
2023-03-26T05:41:07.704Z,7.44
2023-03-26T05:43:35.322Z,7.48
2023-03-26T05:46:02.587Z,7.52
2023-03-26T05:48:29.501Z,7.55
2023-03-26T05:50:57.912Z,7.59
2023-03-26T05:53:27.018Z,7.67
2023-03-26T05:56:04.478Z,7.80
2023-03-26T05:58:33.930Z,8.05
2023-03-26T06:01:06.046Z,8.29
2023-03-26T06:03:34.334Z,8.52
2023-03-26T06:06:01.363Z,8.76
2023-03-26T06:08:28.294Z,8.94
2023-03-26T06:11:03.199Z,9.03
2023-03-26T06:13:31.028Z,9.12
2023-03-26T06:16:00.659Z,9.17
2023-03-26T06:18:27.515Z,9.21
2023-03-26T06:20:54.502Z,9.23
2023-03-26T06:23:23.243Z,9.25
2023-03-26T06:25:50.011Z,9.30
2023-03-26T06:28:16.909Z,9.51
2023-03-26T06:30:43.695Z,9.75
2023-03-26T06:33:11.183Z,9.86
2023-03-26T06:35:37.979Z,9.96
2023-03-26T06:38:05.480Z,9.98
2023-03-26T06:40:33.250Z,9.96
2023-03-26T06:43:10.144Z,9.98
2023-03-26T06:45:38.475Z,10.15
2023-03-26T06:48:05.810Z,10.35
2023-03-26T06:50:33.281Z,10.55
2023-03-26T06:53:01.224Z,10.60
2023-03-26T06:55:28.283Z,10.63
2023-03-26T06:57:56.200Z,10.66
2023-03-26T07:00:23.024Z,10.68
2023-03-26T07:02:50.074Z,10.70
2023-03-26T07:05:17.191Z,10.73
2023-03-26T07:07:46.665Z,10.75
2023-03-26T07:10:15.386Z,10.77
2023-03-26T07:12:43.081Z,10.83
2023-03-26T07:15:10.625Z,10.93
2023-03-26T07:17:37.857Z,11.03
2023-03-26T07:20:08.913Z,11.13
2023-03-26T07:22:36.194Z,11.24
2023-03-26T07:25:03.734Z,11.35
2023-03-26T07:27:52.604Z,11.50
2023-03-26T07:30:47.162Z,11.62
2023-03-26T07:33:26.074Z,11.67
2023-03-26T07:36:15.185Z,11.74
2023-03-26T07:38:44.830Z,11.74
2023-03-26T07:41:19.023Z,11.61
2023-03-26T07:43:59.840Z,11.43
2023-03-26T07:46:32.406Z,11.33
2023-03-26T07:49:00.662Z,11.29
2023-03-26T07:51:28.370Z,11.31
2023-03-26T07:53:55.685Z,11.40
2023-03-26T07:56:59.001Z,11.51
2023-03-26T07:59:40.335Z,11.65
2023-03-26T08:02:19.807Z,11.79
2023-03-26T08:04:52.480Z,11.95
2023-03-26T08:08:03.165Z,12.07
2023-03-26T08:10:55.595Z,12.25
2023-03-26T08:13:34.898Z,12.30
2023-03-26T08:16:12.347Z,12.35
2023-03-26T08:19:00.598Z,12.51
2023-03-26T08:21:35.134Z,12.74
2023-03-26T08:24:11.428Z,12.98
2023-03-26T08:26:41.456Z,13.17
2023-03-26T08:29:21.564Z,13.12
2023-03-26T08:31:50.483Z,13.05
2023-03-26T08:34:17.423Z,13.12
2023-03-26T08:36:44.322Z,13.32
2023-03-26T08:39:11.860Z,13.41
2023-03-26T08:41:49.622Z,13.39
2023-03-26T08:44:36.159Z,13.29
2023-03-26T08:47:27.607Z,13.12
2023-03-26T08:50:11.403Z,12.97
2023-03-26T08:53:08.639Z,12.81
2023-03-26T08:55:55.594Z,12.69
2023-03-26T08:58:25.030Z,12.66
2023-03-26T09:01:17.077Z,12.71
2023-03-26T09:04:03.565Z,12.80
2023-03-26T09:06:58.174Z,12.88
2023-03-26T09:09:52.950Z,12.93
2023-03-26T09:12:44.981Z,12.96
2023-03-26T09:15:31.526Z,12.97
2023-03-26T09:18:27.998Z,12.97
2023-03-26T09:21:22.483Z,12.97
2023-03-26T09:23:52.740Z,12.99
2023-03-26T09:26:41.037Z,13.00
2023-03-26T09:29:21.079Z,13.00
2023-03-26T09:32:05.275Z,13.05
2023-03-26T09:34:46.642Z,13.02
2023-03-26T09:37:56.157Z,12.88
2023-03-26T09:40:44.520Z,12.76
2023-03-26T09:43:25.210Z,12.69
2023-03-26T09:46:06.295Z,12.62
2023-03-26T09:48:52.723Z,12.60
2023-03-26T09:51:39.201Z,12.68
2023-03-26T09:54:13.521Z,12.85
2023-03-26T09:56:52.542Z,13.06
2023-03-26T09:59:39.673Z,13.32
2023-03-26T10:02:45.895Z,13.42
2023-03-26T10:05:39.295Z,13.45
2023-03-26T10:08:32.528Z,13.41
2023-03-26T10:11:28.244Z,13.34
2023-03-26T10:14:19.023Z,13.27
2023-03-26T10:17:05.336Z,13.20
2023-03-26T10:20:05.640Z,13.18
2023-03-26T10:22:46.311Z,13.14
2023-03-26T10:25:13.100Z,13.05
2023-03-26T10:28:03.396Z,13.01
2023-03-26T10:30:44.136Z,13.08
2023-03-26T10:33:25.052Z,13.18
2023-03-26T10:36:30.317Z,13.31
2023-03-26T10:39:36.700Z,13.46
2023-03-26T10:42:26.098Z,13.59
2023-03-26T10:45:21.106Z,13.61
2023-03-26T10:47:53.712Z,13.56
2023-03-26T10:50:32.958Z,13.50
2023-03-26T10:53:18.958Z,13.41
2023-03-26T10:55:53.675Z,13.37
2023-03-26T10:58:48.485Z,13.41
2023-03-26T11:01:36.484Z,13.64
2023-03-26T11:04:14.340Z,13.80
2023-03-26T11:07:05.423Z,13.87
2023-03-26T11:09:51.925Z,13.91
2023-03-26T11:12:32.845Z,13.91
2023-03-26T11:15:12.100Z,13.85
2023-03-26T11:18:07.103Z,13.75
2023-03-26T11:20:46.739Z,13.59
2023-03-26T11:23:27.316Z,13.49
2023-03-26T11:26:02.708Z,13.46
2023-03-26T11:29:03.754Z,13.53
2023-03-26T11:31:55.396Z,13.68
2023-03-26T11:34:28.828Z,13.82
2023-03-26T11:36:58.934Z,13.92
2023-03-26T11:39:28.665Z,13.95
2023-03-26T11:42:17.487Z,13.97
2023-03-26T11:44:54.566Z,14.02
2023-03-26T11:47:31.554Z,14.04
2023-03-26T11:50:01.601Z,14.03
2023-03-26T11:52:28.616Z,14.05
2023-03-26T11:54:58.585Z,14.05
2023-03-26T11:57:35.488Z,14.00
2023-03-26T12:00:17.108Z,13.95
2023-03-26T12:02:46.257Z,13.93
2023-03-26T12:05:16.649Z,13.94
2023-03-26T12:07:49.611Z,13.98
2023-03-26T12:10:31.417Z,14.01
2023-03-26T12:13:07.139Z,14.10
2023-03-26T12:15:34.055Z,14.21
2023-03-26T12:18:23.881Z,14.26
2023-03-26T12:21:04.896Z,14.24
2023-03-26T12:24:08.668Z,14.14
2023-03-26T12:26:37.286Z,14.00
2023-03-26T12:29:14.348Z,13.88
2023-03-26T12:32:07.162Z,13.78
2023-03-26T12:34:39.674Z,13.64
2023-03-26T12:37:09.078Z,13.52
2023-03-26T12:40:09.517Z,13.38
2023-03-26T12:44:49.495Z,13.20
2023-03-26T12:45:28.214Z,13.04
2023-03-26T12:48:04.222Z,12.91
2023-03-26T12:50:55.446Z,12.82
2023-03-26T12:53:22.446Z,12.73
2023-03-26T12:55:52.246Z,12.66
2023-03-26T12:58:51.327Z,12.62
2023-03-26T13:01:33.562Z,12.59
2023-03-26T13:04:14.404Z,12.59
2023-03-26T13:07:00.227Z,12.65
2023-03-26T13:09:39.455Z,12.71
2023-03-26T13:12:12.028Z,12.70
2023-03-26T13:14:41.590Z,12.68
2023-03-26T13:17:35.254Z,12.69
2023-03-26T13:20:12.671Z,12.82
2023-03-26T13:22:43.852Z,13.00
2023-03-26T13:25:38.663Z,13.19
2023-03-26T13:28:31.564Z,13.37
2023-03-26T13:33:54.737Z,13.51
2023-03-26T13:36:33.686Z,13.54
2023-03-26T13:39:14.161Z,13.55
2023-03-26T13:42:08.786Z,13.54
2023-03-26T13:45:04.427Z,13.51
2023-03-26T13:47:41.356Z,13.54
2023-03-26T13:50:21.148Z,13.62
2023-03-26T13:52:53.595Z,13.66
2023-03-26T13:55:29.676Z,13.69
2023-03-26T13:58:19.306Z,13.72
2023-03-26T14:01:07.470Z,13.80
2023-03-26T14:03:56.410Z,13.82
2023-03-26T14:06:23.162Z,13.86
2023-03-26T14:09:03.549Z,13.85
2023-03-26T14:11:42.350Z,13.85
2023-03-26T14:14:29.128Z,13.86
2023-03-26T14:17:21.958Z,13.87
2023-03-26T14:20:02.856Z,13.89
2023-03-26T14:22:38.334Z,13.93
2023-03-26T14:25:29.337Z,13.95
2023-03-26T14:28:23.979Z,13.95
2023-03-26T14:31:08.381Z,13.92
2023-03-26T14:34:08.218Z,13.85
2023-03-26T14:36:51.327Z,13.74
2023-03-26T14:39:18.028Z,13.65
2023-03-26T14:42:02.940Z,13.59
2023-03-26T14:44:51.409Z,13.54
2023-03-26T14:47:21.136Z,13.51
2023-03-26T14:50:04.553Z,13.48
2023-03-26T14:52:50.218Z,13.46
2023-03-26T14:55:20.368Z,13.43
2023-03-26T14:57:56.387Z,13.40
2023-03-26T15:00:42.838Z,13.33
2023-03-26T15:03:09.688Z,13.25
2023-03-26T15:05:57.264Z,13.19
2023-03-26T15:08:51.937Z,13.18
2023-03-26T15:11:35.334Z,13.16
2023-03-26T15:14:21.912Z,13.14
2023-03-26T15:16:54.669Z,13.12
2023-03-26T15:19:36.819Z,13.10
2023-03-26T15:22:11.295Z,13.09
2023-03-26T15:25:05.968Z,13.07
2023-03-26T15:27:52.145Z,13.06
2023-03-26T15:30:42.278Z,13.04
2023-03-26T15:33:40.713Z,13.02
2023-03-26T15:36:24.952Z,13.00
2023-03-26T15:39:01.183Z,12.97
2023-03-26T15:41:38.848Z,12.95
2023-03-26T15:44:22.972Z,12.90
2023-03-26T15:46:58.274Z,12.84
2023-03-26T15:49:29.667Z,12.79
2023-03-26T15:52:22.272Z,12.73
2023-03-26T15:55:17.918Z,12.68
2023-03-26T15:57:57.022Z,12.65
2023-03-26T16:00:31.037Z,12.61
2023-03-26T16:03:09.755Z,12.58
2023-03-26T16:06:04.636Z,12.56
2023-03-26T16:08:31.472Z,12.53
2023-03-26T16:11:00.607Z,12.52
2023-03-26T16:13:42.518Z,12.52
2023-03-26T16:16:15.395Z,12.49
2023-03-26T16:18:45.048Z,12.47
2023-03-26T16:21:31.825Z,12.45
2023-03-26T16:24:02.413Z,12.41
2023-03-26T16:26:44.295Z,12.37
2023-03-26T16:29:18.429Z,12.30
2023-03-26T16:31:59.313Z,12.23
2023-03-26T16:34:37.214Z,12.16
2023-03-26T16:37:26.260Z,12.10
2023-03-26T16:39:54.280Z,12.01
2023-03-26T16:42:47.016Z,11.92
2023-03-26T16:45:37.567Z,11.83
2023-03-26T16:48:21.208Z,11.74
2023-03-26T16:51:08.864Z,11.65
2023-03-26T16:53:48.603Z,11.55
2023-03-26T16:56:29.449Z,11.45
2023-03-26T16:59:07.507Z,11.34
2023-03-26T17:01:52.332Z,11.24
2023-03-26T17:04:23.846Z,11.13
2023-03-26T17:07:03.570Z,11.04
2023-03-26T17:09:43.037Z,10.94
2023-03-26T17:12:31.660Z,10.86
2023-03-26T17:15:19.427Z,10.78
2023-03-26T17:18:16.470Z,10.70
2023-03-26T17:20:52.434Z,10.61
2023-03-26T17:23:27.331Z,10.51
2023-03-26T17:26:06.475Z,10.43
2023-03-26T17:28:33.935Z,10.35
2023-03-26T17:31:05.326Z,10.26
2023-03-26T17:33:35.345Z,10.16
2023-03-26T17:36:11.521Z,10.06
2023-03-26T17:38:58.514Z,9.96
2023-03-26T17:41:55.719Z,9.83
2023-03-26T17:44:50.637Z,9.70
2023-03-26T17:47:23.998Z,9.58
2023-03-26T17:49:59.751Z,9.48
2023-03-26T17:52:39.204Z,9.35
2023-03-26T17:55:10.620Z,9.22
2023-03-26T17:57:43.645Z,9.10
2023-03-26T18:00:42.001Z,8.99
2023-03-26T18:03:36.663Z,8.87
2023-03-26T18:06:08.774Z,8.75
2023-03-26T18:08:48.050Z,8.66
2023-03-26T18:11:33.118Z,8.53
2023-03-26T18:14:16.743Z,8.42
2023-03-26T18:16:52.003Z,8.33
2023-03-26T18:19:23.034Z,8.23
2023-03-26T18:21:53.293Z,8.14
2023-03-26T18:24:28.959Z,8.04
2023-03-26T18:27:03.944Z,7.97
2023-03-26T18:29:33.773Z,7.91
2023-03-26T18:32:02.648Z,7.86
2023-03-26T18:34:34.295Z,7.80
2023-03-26T18:37:18.854Z,7.74
2023-03-26T18:39:59.613Z,7.67
2023-03-26T18:42:29.693Z,7.61
2023-03-26T18:45:00.885Z,7.57
2023-03-26T18:47:30.780Z,7.52
2023-03-26T18:49:59.033Z,7.50
2023-03-26T18:52:29.640Z,7.49
2023-03-26T18:55:00.743Z,7.48
2023-03-26T18:57:29.418Z,7.49
2023-03-26T19:00:15.618Z,7.51
2023-03-26T19:02:42.778Z,7.53
2023-03-26T19:05:17.598Z,7.54
2023-03-26T19:07:49.410Z,7.55
2023-03-26T19:10:21.467Z,7.58
2023-03-26T19:12:59.141Z,7.61
2023-03-26T19:15:29.128Z,7.64
2023-03-26T19:18:22.457Z,7.64
2023-03-26T19:20:52.642Z,7.65
2023-03-26T19:23:22.550Z,7.65
2023-03-26T19:25:54.994Z,7.65
2023-03-26T19:28:28.265Z,7.67
2023-03-26T19:31:07.381Z,7.68
2023-03-26T19:33:38.438Z,7.72
2023-03-26T19:36:34.942Z,7.75
2023-03-26T19:39:02.678Z,7.79
2023-03-26T19:41:39.404Z,7.83
2023-03-26T19:44:18.248Z,7.88
2023-03-26T19:46:53.064Z,7.92
2023-03-26T19:49:32.878Z,7.96
2023-03-26T19:52:27.199Z,8.00
2023-03-26T19:55:25.116Z,8.04
2023-03-26T19:57:51.905Z,8.08
2023-03-26T20:00:19.177Z,8.12
2023-03-26T20:02:46.642Z,8.16
2023-03-26T20:05:26.292Z,8.19
2023-03-26T20:07:56.990Z,8.23
2023-03-26T20:10:24.641Z,8.26
2023-03-26T20:12:51.551Z,8.30
2023-03-26T20:15:31.314Z,8.33
2023-03-26T20:17:57.969Z,8.37
2023-03-26T20:20:27.461Z,8.38
2023-03-26T20:22:55.342Z,8.41
2023-03-26T20:25:26.086Z,8.43
2023-03-26T20:27:55.618Z,8.44
2023-03-26T20:30:36.931Z,8.45
2023-03-26T20:33:12.380Z,8.47
2023-03-26T20:35:40.965Z,8.48
2023-03-26T20:38:10.138Z,8.49
2023-03-26T20:40:40.251Z,8.48
2023-03-26T20:43:13.098Z,8.48
2023-03-26T20:45:40.733Z,8.47
2023-03-26T20:48:10.402Z,8.45
2023-03-26T20:50:50.249Z,8.43
2023-03-26T20:53:18.393Z,8.40
2023-03-26T20:55:46.610Z,8.37
2023-03-26T20:58:31.276Z,8.34
2023-03-26T21:01:02.610Z,8.32
2023-03-26T21:03:29.799Z,8.28
2023-03-26T21:06:01.352Z,8.25
2023-03-26T21:08:35.468Z,8.23
2023-03-26T21:11:04.950Z,8.20
2023-03-26T21:13:46.854Z,8.17
2023-03-26T21:16:14.890Z,8.13
2023-03-26T21:18:42.955Z,8.11
2023-03-26T21:21:23.796Z,8.08
2023-03-26T21:24:05.193Z,8.07
2023-03-26T21:26:45.328Z,8.03
2023-03-26T21:29:12.721Z,8.00
2023-03-26T21:31:39.945Z,7.97
2023-03-26T21:34:08.638Z,7.94
2023-03-26T21:36:36.430Z,7.93
2023-03-26T21:39:05.013Z,7.92
2023-03-26T21:42:05.495Z,7.90
2023-03-26T21:44:34.192Z,7.87
2023-03-26T21:47:01.320Z,7.83
2023-03-26T21:49:28.868Z,7.78
2023-03-26T21:51:56.076Z,7.76
2023-03-26T21:54:28.597Z,7.76
2023-03-26T21:56:57.984Z,7.74
2023-03-26T21:59:39.396Z,7.74
2023-03-26T22:02:34.018Z,7.74
2023-03-26T22:05:26.978Z,7.73
2023-03-26T22:08:00.349Z,7.71
2023-03-26T22:10:27.911Z,7.70
2023-03-26T22:12:54.793Z,7.69
2023-03-26T22:15:22.142Z,7.67
2023-03-26T22:17:55.963Z,7.66
2023-03-26T22:20:28.194Z,7.65
2023-03-26T22:22:55.473Z,7.64
2023-03-26T22:25:24.560Z,7.63
2023-03-26T22:27:51.937Z,7.60
2023-03-26T22:30:20.844Z,7.59
2023-03-26T22:32:47.935Z,7.57
2023-03-26T22:35:15.011Z,7.54
2023-03-26T22:37:42.056Z,7.51
2023-03-26T22:40:10.667Z,7.49
2023-03-26T22:42:37.546Z,7.48
2023-03-26T22:45:05.592Z,7.47
2023-03-26T22:47:34.384Z,7.47
2023-03-26T22:50:03.345Z,7.46
2023-03-26T22:52:31.710Z,7.46
2023-03-26T22:54:58.735Z,7.45
2023-03-26T22:57:25.891Z,7.44
2023-03-26T22:59:53.171Z,7.43
2023-03-26T23:02:20.785Z,7.41
2023-03-26T23:04:48.845Z,7.40
2023-03-26T23:07:16.190Z,7.38
2023-03-26T23:09:42.866Z,7.36
2023-03-26T23:12:09.572Z,7.34
2023-03-26T23:14:36.385Z,7.33
2023-03-26T23:17:03.733Z,7.30
2023-03-26T23:19:30.578Z,7.28
2023-03-26T23:21:57.591Z,7.26
2023-03-26T23:24:26.706Z,7.24
2023-03-26T23:26:53.680Z,7.23
2023-03-26T23:29:20.539Z,7.23
2023-03-26T23:31:48.018Z,7.23
2023-03-26T23:34:17.218Z,7.21
2023-03-26T23:36:44.974Z,7.20
2023-03-26T23:39:20.957Z,7.19
2023-03-26T23:41:48.182Z,7.17
2023-03-26T23:44:17.088Z,7.15
2023-03-26T23:46:44.273Z,7.12
2023-03-26T23:49:12.379Z,7.10
2023-03-26T23:51:39.102Z,7.09
2023-03-26T23:54:06.329Z,7.08
2023-03-26T23:56:33.170Z,7.06
2023-03-26T23:59:00.652Z,7.06
